sensor_id;sensor_type;location;lat;lon;timestamp;pressure;altitude;pressure_sealevel;temperature;humidity
25947;BME280;13745;51.470;9.894;2024-01-15T00:02:13;97620.94;;;1.17;89.76
25947;BME280;13745;51.470;9.894;2024-01-15T00:04:58;97615.00;;;1.17;89.57
25947;BME280;13745;51.470;9.894;2024-01-15T00:07:43;97608.16;;;1.16;89.88
25947;BME280;13745;51.470;9.894;2024-01-15T00:10:28;97601.38;;;1.18;89.64
25947;BME280;13745;51.470;9.894;2024-01-15T00:13:13;97602.25;;;1.17;89.83
25947;BME280;13745;51.470;9.894;2024-01-15T00:15:59;97602.25;;;1.17;89.72
25947;BME280;13745;51.470;9.894;2024-01-15T00:18:44;97594.56;;;1.18;90.16
25947;BME280;13745;51.470;9.894;2024-01-15T00:21:29;97592.00;;;1.20;90.52
25947;BME280;13745;51.470;9.894;2024-01-15T00:24:14;97592.00;;;1.21;89.63
25947;BME280;13745;51.470;9.894;2024-01-15T00:26:59;97599.66;;;1.21;89.77
25947;BME280;13745;51.470;9.894;2024-01-15T00:29:44;97600.53;;;1.19;89.78
25947;BME280;13745;51.470;9.894;2024-01-15T00:32:30;97597.13;;;1.17;90.04
25947;BME280;13745;51.470;9.894;2024-01-15T00:35:15;97598.84;;;1.18;89.80
25947;BME280;13745;51.470;9.894;2024-01-15T00:38:00;97597.13;;;1.17;90.67
25947;BME280;13745;51.470;9.894;2024-01-15T00:40:46;97603.94;;;1.18;89.85
25947;BME280;13745;51.470;9.894;2024-01-15T00:43:30;97592.88;;;1.19;90.33
25947;BME280;13745;51.470;9.894;2024-01-15T00:46:15;97597.97;;;1.16;90.26
25947;BME280;13745;51.470;9.894;2024-01-15T00:49:02;97590.34;;;1.12;89.91
25947;BME280;13745;51.470;9.894;2024-01-15T00:51:47;97602.25;;;1.10;90.27
25947;BME280;13745;51.470;9.894;2024-01-15T00:54:32;97605.69;;;1.08;90.02
25947;BME280;13745;51.470;9.894;2024-01-15T00:57:17;97612.47;;;1.10;90.74
25947;BME280;13745;51.470;9.894;2024-01-15T01:00:04;97583.56;;;1.08;90.16
25947;BME280;13745;51.470;9.894;2024-01-15T01:02:50;97590.38;;;1.05;90.85
25947;BME280;13745;51.470;9.894;2024-01-15T01:05:36;97592.09;;;1.04;90.78
25947;BME280;13745;51.470;9.894;2024-01-15T01:08:22;97586.13;;;1.04;90.46
25947;BME280;13745;51.470;9.894;2024-01-15T01:11:07;97592.94;;;1.02;90.90
25947;BME280;13745;51.470;9.894;2024-01-15T01:13:53;97588.69;;;1.04;90.33
25947;BME280;13745;51.470;9.894;2024-01-15T01:16:40;97592.09;;;1.03;90.50
25947;BME280;13745;51.470;9.894;2024-01-15T01:19:25;97577.66;;;1.00;91.33
25947;BME280;13745;51.470;9.894;2024-01-15T01:22:11;97582.75;;;1.00;91.25
25947;BME280;13745;51.470;9.894;2024-01-15T01:24:56;97596.34;;;1.04;91.26
25947;BME280;13745;51.470;9.894;2024-01-15T01:27:42;97576.75;;;1.06;90.99
25947;BME280;13745;51.470;9.894;2024-01-15T01:30:27;97575.06;;;1.08;90.80
25947;BME280;13745;51.470;9.894;2024-01-15T01:33:12;97583.53;;;1.11;90.58
25947;BME280;13745;51.470;9.894;2024-01-15T01:35:57;97581.00;;;1.11;90.25
25947;BME280;13745;51.470;9.894;2024-01-15T01:38:43;97574.19;;;1.13;90.15
25947;BME280;13745;51.470;9.894;2024-01-15T01:41:28;97571.59;;;1.15;90.48
25947;BME280;13745;51.470;9.894;2024-01-15T01:44:13;97566.53;;;1.17;91.02
25947;BME280;13745;51.470;9.894;2024-01-15T01:46:59;97573.28;;;1.21;90.11
25947;BME280;13745;51.470;9.894;2024-01-15T01:49:45;97574.13;;;1.23;90.33
25947;BME280;13745;51.470;9.894;2024-01-15T01:52:31;97575.81;;;1.24;90.54
25947;BME280;13745;51.470;9.894;2024-01-15T01:55:19;97579.22;;;1.27;90.22
25947;BME280;13745;51.470;9.894;2024-01-15T01:58:06;97582.59;;;1.29;90.06
25947;BME280;13745;51.470;9.894;2024-01-15T02:00:51;97575.75;;;1.31;90.43
25947;BME280;13745;51.470;9.894;2024-01-15T02:03:36;97586.84;;;1.33;90.09
25947;BME280;13745;51.470;9.894;2024-01-15T02:06:22;97575.78;;;1.33;90.07
25947;BME280;13745;51.470;9.894;2024-01-15T02:09:07;97580.88;;;1.34;90.53
25947;BME280;13745;51.470;9.894;2024-01-15T02:11:54;97588.50;;;1.36;90.33
25947;BME280;13745;51.470;9.894;2024-01-15T02:14:40;97587.63;;;1.38;90.30
25947;BME280;13745;51.470;9.894;2024-01-15T02:17:25;97588.50;;;1.37;90.01
25947;BME280;13745;51.470;9.894;2024-01-15T02:20:11;97570.63;;;1.39;90.79
25947;BME280;13745;51.470;9.894;2024-01-15T02:23:07;97572.31;;;1.40;90.57
25947;BME280;13745;51.470;9.894;2024-01-15T02:25:53;97568.06;;;1.44;89.96
25947;BME280;13745;51.470;9.894;2024-01-15T02:28:38;97564.63;;;1.49;89.83
25947;BME280;13745;51.470;9.894;2024-01-15T02:31:25;97572.22;;;1.55;89.93
25947;BME280;13745;51.470;9.894;2024-01-15T02:34:10;97565.41;;;1.56;89.31
25947;BME280;13745;51.470;9.894;2024-01-15T02:36:55;97565.41;;;1.59;89.24
25947;BME280;13745;51.470;9.894;2024-01-15T02:39:41;97568.81;;;1.55;88.69
25947;BME280;13745;51.470;9.894;2024-01-15T02:42:26;97569.69;;;1.52;89.09
25947;BME280;13745;51.470;9.894;2024-01-15T02:45:12;97571.41;;;1.50;88.30
25947;BME280;13745;51.470;9.894;2024-01-15T02:47:57;97567.16;;;1.51;88.61
25947;BME280;13745;51.470;9.894;2024-01-15T02:50:42;97568.84;;;1.52;88.36
25947;BME280;13745;51.470;9.894;2024-01-15T02:53:27;97564.56;;;1.55;87.57
25947;BME280;13745;51.470;9.894;2024-01-15T02:56:14;97550.94;;;1.55;87.92
25947;BME280;13745;51.470;9.894;2024-01-15T02:58:59;97546.72;;;1.52;87.29
25947;BME280;13745;51.470;9.894;2024-01-15T03:01:44;97550.13;;;1.51;87.53
25947;BME280;13745;51.470;9.894;2024-01-15T03:04:29;97549.31;;;1.46;87.20
25947;BME280;13745;51.470;9.894;2024-01-15T03:07:15;97556.16;;;1.43;86.72
25947;BME280;13745;51.470;9.894;2024-01-15T03:10:00;97563.81;;;1.39;87.40
25947;BME280;13745;51.470;9.894;2024-01-15T03:12:46;97558.72;;;1.38;87.19
25947;BME280;13745;51.470;9.894;2024-01-15T03:15:31;97571.50;;;1.36;87.29
25947;BME280;13745;51.470;9.894;2024-01-15T03:18:16;97561.28;;;1.38;86.94
25947;BME280;13745;51.470;9.894;2024-01-15T03:21:02;97566.34;;;1.39;86.97
25947;BME280;13745;51.470;9.894;2024-01-15T03:23:47;97563.78;;;1.44;87.05
25947;BME280;13745;51.470;9.894;2024-01-15T03:26:32;97563.75;;;1.50;86.25
25947;BME280;13745;51.470;9.894;2024-01-15T03:29:18;97562.88;;;1.53;86.98
25947;BME280;13745;51.470;9.894;2024-01-15T03:32:04;97560.28;;;1.59;86.91
25947;BME280;13745;51.470;9.894;2024-01-15T03:34:49;97567.06;;;1.61;86.55
25947;BME280;13745;51.470;9.894;2024-01-15T03:37:36;97555.13;;;1.63;86.67
25947;BME280;13745;51.470;9.894;2024-01-15T03:40:21;97561.94;;;1.64;86.54
25947;BME280;13745;51.470;9.894;2024-01-15T03:43:06;97552.56;;;1.66;86.25
25947;BME280;13745;51.470;9.894;2024-01-15T03:45:52;97560.22;;;1.66;85.90
25947;BME280;13745;51.470;9.894;2024-01-15T03:48:37;97569.56;;;1.69;85.98
25947;BME280;13745;51.470;9.894;2024-01-15T03:51:22;97566.16;;;1.70;86.17
25947;BME280;13745;51.470;9.894;2024-01-15T03:54:07;97558.50;;;1.68;85.73
25947;BME280;13745;51.470;9.894;2024-01-15T03:56:53;97559.31;;;1.72;85.93
25947;BME280;13745;51.470;9.894;2024-01-15T03:59:37;97549.94;;;1.73;85.95
25947;BME280;13745;51.470;9.894;2024-01-15T04:02:26;97548.25;;;1.73;85.74
25947;BME280;13745;51.470;9.894;2024-01-15T04:05:11;97548.25;;;1.72;85.78
25947;BME280;13745;51.470;9.894;2024-01-15T04:07:56;97543.13;;;1.73;86.01
25947;BME280;13745;51.470;9.894;2024-01-15T04:10:41;97549.09;;;1.72;86.10
25947;BME280;13745;51.470;9.894;2024-01-15T04:13:27;97546.56;;;1.72;85.78
25947;BME280;13745;51.470;9.894;2024-01-15T04:16:12;97541.44;;;1.72;85.98
25947;BME280;13745;51.470;9.894;2024-01-15T04:18:58;97532.06;;;1.73;85.46
25947;BME280;13745;51.470;9.894;2024-01-15T04:21:44;97538.88;;;1.72;85.25
25947;BME280;13745;51.470;9.894;2024-01-15T04:24:31;97531.22;;;1.72;85.78
25947;BME280;13745;51.470;9.894;2024-01-15T04:27:16;97539.75;;;1.71;85.40
25947;BME280;13745;51.470;9.894;2024-01-15T04:30:01;97520.22;;;1.67;85.36
25947;BME280;13745;51.470;9.894;2024-01-15T04:32:47;97533.84;;;1.64;85.81
25947;BME280;13745;51.470;9.894;2024-01-15T04:35:34;97535.56;;;1.62;85.74
25947;BME280;13745;51.470;9.894;2024-01-15T04:38:19;97527.94;;;1.59;85.86
25947;BME280;13745;51.470;9.894;2024-01-15T04:41:04;97527.97;;;1.58;85.47
25947;BME280;13745;51.470;9.894;2024-01-15T04:43:49;97527.09;;;1.59;85.86
25947;BME280;13745;51.470;9.894;2024-01-15T04:46:34;97527.94;;;1.59;85.54
25947;BME280;13745;51.470;9.894;2024-01-15T04:49:19;97529.66;;;1.59;85.68
25947;BME280;13745;51.470;9.894;2024-01-15T04:52:06;97540.72;;;1.59;85.54
25947;BME280;13745;51.470;9.894;2024-01-15T04:54:54;97522.84;;;1.58;85.42
25947;BME280;13745;51.470;9.894;2024-01-15T04:57:39;97526.25;;;1.60;85.15
25947;BME280;13745;51.470;9.894;2024-01-15T05:00:24;97520.31;;;1.58;85.26
25947;BME280;13745;51.470;9.894;2024-01-15T05:03:09;97505.84;;;1.55;85.13
25947;BME280;13745;51.470;9.894;2024-01-15T05:05:54;97510.09;;;1.55;85.18
25947;BME280;13745;51.470;9.894;2024-01-15T05:08:41;97513.50;;;1.54;85.12
25947;BME280;13745;51.470;9.894;2024-01-15T05:11:26;97519.50;;;1.51;85.46
25947;BME280;13745;51.470;9.894;2024-01-15T05:14:11;97514.41;;;1.51;84.99
25947;BME280;13745;51.470;9.894;2024-01-15T05:16:56;97516.97;;;1.50;84.69
25947;BME280;13745;51.470;9.894;2024-01-15T05:19:41;97511.00;;;1.51;84.87
25947;BME280;13745;51.470;9.894;2024-01-15T05:22:26;97499.94;;;1.50;84.74
25947;BME280;13745;51.470;9.894;2024-01-15T05:25:13;97488.03;;;1.49;85.01
25947;BME280;13745;51.470;9.894;2024-01-15T05:27:58;97498.25;;;1.48;84.97
25947;BME280;13745;51.470;9.894;2024-01-15T05:30:43;97499.13;;;1.45;85.19
25947;BME280;13745;51.470;9.894;2024-01-15T05:33:28;97481.28;;;1.42;84.81
25947;BME280;13745;51.470;9.894;2024-01-15T05:36:13;97502.56;;;1.43;85.14
25947;BME280;13745;51.470;9.894;2024-01-15T05:38:58;97492.34;;;1.39;84.92
25947;BME280;13745;51.470;9.894;2024-01-15T05:41:45;97506.00;;;1.35;85.28
25947;BME280;13745;51.470;9.894;2024-01-15T05:44:30;97509.44;;;1.33;85.42
25947;BME280;13745;51.470;9.894;2024-01-15T05:47:15;97500.91;;;1.31;85.66
25947;BME280;13745;51.470;9.894;2024-01-15T05:50:01;97504.34;;;1.30;85.63
25947;BME280;13745;51.470;9.894;2024-01-15T05:52:46;97500.06;;;1.30;86.36
25947;BME280;13745;51.470;9.894;2024-01-15T05:55:31;97502.66;;;1.29;86.28
25947;BME280;13745;51.470;9.894;2024-01-15T05:58:17;97500.97;;;1.26;86.46
25947;BME280;13745;51.470;9.894;2024-01-15T06:01:03;97504.38;;;1.24;86.66
25947;BME280;13745;51.470;9.894;2024-01-15T06:03:48;97513.72;;;1.23;86.78
25947;BME280;13745;51.470;9.894;2024-01-15T06:06:33;97518.84;;;1.23;87.33
25947;BME280;13745;51.470;9.894;2024-01-15T06:09:18;97507.78;;;1.23;87.45
25947;BME280;13745;51.470;9.894;2024-01-15T06:12:03;97511.19;;;1.23;87.26
25947;BME280;13745;51.470;9.894;2024-01-15T06:14:50;97506.91;;;1.24;87.13
25947;BME280;13745;51.470;9.894;2024-01-15T06:17:36;97509.50;;;1.22;88.00
25947;BME280;13745;51.470;9.894;2024-01-15T06:20:21;97511.22;;;1.20;87.51
25947;BME280;13745;51.470;9.894;2024-01-15T06:23:06;97520.59;;;1.18;87.39
25947;BME280;13745;51.470;9.894;2024-01-15T06:25:51;97513.78;;;1.17;87.47
25947;BME280;13745;51.470;9.894;2024-01-15T06:28:36;97510.41;;;1.17;87.86
25947;BME280;13745;51.470;9.894;2024-01-15T06:31:22;97514.66;;;1.11;88.03
25947;BME280;13745;51.470;9.894;2024-01-15T06:34:07;97512.16;;;1.04;87.83
25947;BME280;13745;51.470;9.894;2024-01-15T06:36:53;97513.06;;;0.97;88.30
25947;BME280;13745;51.470;9.894;2024-01-15T06:39:38;97519.06;;;0.91;88.54
25947;BME280;13745;51.470;9.894;2024-01-15T06:42:23;97527.56;;;0.87;89.05
25947;BME280;13745;51.470;9.894;2024-01-15T06:45:08;97525.91;;;0.83;89.51
25947;BME280;13745;51.470;9.894;2024-01-15T06:47:55;97525.03;;;0.81;89.02
25947;BME280;13745;51.470;9.894;2024-01-15T06:50:40;97523.34;;;0.80;89.53
25947;BME280;13745;51.470;9.894;2024-01-15T06:53:25;97525.03;;;0.81;89.88
25947;BME280;13745;51.470;9.894;2024-01-15T06:56:10;97519.09;;;0.80;89.54
25947;BME280;13745;51.470;9.894;2024-01-15T06:58:55;97512.31;;;0.78;89.30
25947;BME280;13745;51.470;9.894;2024-01-15T07:01:41;97508.94;;;0.76;89.59
25947;BME280;13745;51.470;9.894;2024-01-15T07:04:28;97508.91;;;0.74;89.73
25947;BME280;13745;51.470;9.894;2024-01-15T07:07:13;97525.06;;;0.73;90.15
25947;BME280;13745;51.470;9.894;2024-01-15T07:09:57;97517.41;;;0.73;90.28
25947;BME280;13745;51.470;9.894;2024-01-15T07:12:43;97511.47;;;0.73;89.61
25947;BME280;13745;51.470;9.894;2024-01-15T07:15:29;97522.53;;;0.70;89.67
25947;BME280;13745;51.470;9.894;2024-01-15T07:18:13;97519.19;;;0.67;90.58
25947;BME280;13745;51.470;9.894;2024-01-15T07:21:00;97511.50;;;0.65;90.33
25947;BME280;13745;51.470;9.894;2024-01-15T07:23:46;97506.41;;;0.65;89.73
25947;BME280;13745;51.470;9.894;2024-01-15T07:26:31;97514.91;;;0.66;90.41
25947;BME280;13745;51.470;9.894;2024-01-15T07:29:16;97530.22;;;0.67;90.34
25947;BME280;13745;51.470;9.894;2024-01-15T07:32:01;97528.50;;;0.68;90.11
25947;BME280;13745;51.470;9.894;2024-01-15T07:34:47;97524.25;;;0.70;90.70
25947;BME280;13745;51.470;9.894;2024-01-15T07:37:33;97525.97;;;0.69;90.10
25947;BME280;13745;51.470;9.894;2024-01-15T07:40:18;97526.81;;;0.67;90.32
25947;BME280;13745;51.470;9.894;2024-01-15T07:43:03;97535.31;;;0.63;90.50
25947;BME280;13745;51.470;9.894;2024-01-15T07:45:48;97533.63;;;0.62;91.26
25947;BME280;13745;51.470;9.894;2024-01-15T07:48:33;97539.59;;;0.61;90.89
25947;BME280;13745;51.470;9.894;2024-01-15T07:51:19;97552.34;;;0.61;91.06
25947;BME280;13745;51.470;9.894;2024-01-15T07:54:06;97537.03;;;0.61;91.42
25947;BME280;13745;51.470;9.894;2024-01-15T07:56:55;97552.31;;;0.64;91.16
25947;BME280;13745;51.470;9.894;2024-01-15T07:59:41;97545.50;;;0.67;91.44
25947;BME280;13745;51.470;9.894;2024-01-15T08:02:26;97535.28;;;0.66;91.65
25947;BME280;13745;51.470;9.894;2024-01-15T08:05:11;97540.41;;;0.70;90.93
25947;BME280;13745;51.470;9.894;2024-01-15T08:07:56;97550.56;;;0.73;91.31
25947;BME280;13745;51.470;9.894;2024-01-15T08:10:42;97530.13;;;0.81;91.10
25947;BME280;13745;51.470;9.894;2024-01-15T08:13:27;97526.72;;;0.87;90.79
25947;BME280;13745;51.470;9.894;2024-01-15T08:16:13;97527.53;;;0.93;91.10
25947;BME280;13745;51.470;9.894;2024-01-15T08:18:59;97528.34;;;1.01;90.82
25947;BME280;13745;51.470;9.894;2024-01-15T08:21:44;97528.28;;;1.07;89.89
25947;BME280;13745;51.470;9.894;2024-01-15T08:24:29;97528.28;;;1.07;89.89
25947;BME280;13745;51.470;9.894;2024-01-15T08:27:17;97524.06;;;1.03;90.12
25947;BME280;13745;51.470;9.894;2024-01-15T08:30:02;97514.72;;;1.02;90.86
25947;BME280;13745;51.470;9.894;2024-01-15T08:32:48;97523.25;;;1.01;90.55
25947;BME280;13745;51.470;9.894;2024-01-15T08:35:33;97536.84;;;1.00;91.07
25947;BME280;13745;51.470;9.894;2024-01-15T08:38:19;97523.28;;;0.95;89.99
25947;BME280;13745;51.470;9.894;2024-01-15T08:41:04;97519.03;;;0.94;91.15
25947;BME280;13745;51.470;9.894;2024-01-15T08:43:51;97523.28;;;0.94;90.99
25947;BME280;13745;51.470;9.894;2024-01-15T08:46:37;97513.91;;;0.96;90.09
25947;BME280;13745;51.470;9.894;2024-01-15T08:49:22;97512.19;;;0.98;91.05
25947;BME280;13745;51.470;9.894;2024-01-15T08:52:07;97518.97;;;1.03;90.12
25947;BME280;13745;51.470;9.894;2024-01-15T08:54:52;97525.75;;;1.09;90.72
25947;BME280;13745;51.470;9.894;2024-01-15T08:57:37;97525.72;;;1.10;90.65
25947;BME280;13745;51.470;9.894;2024-01-15T09:00:23;97530.81;;;1.13;90.12
25947;BME280;13745;51.470;9.894;2024-01-15T09:03:08;97528.28;;;1.12;90.69
25947;BME280;13745;51.470;9.894;2024-01-15T09:05:54;97531.66;;;1.14;90.33
25947;BME280;13745;51.470;9.894;2024-01-15T09:08:39;97538.47;;;1.17;90.65
25947;BME280;13745;51.470;9.894;2024-01-15T09:11:24;97532.50;;;1.15;90.08
25947;BME280;13745;51.470;9.894;2024-01-15T09:14:09;97533.34;;;1.13;90.24
25947;BME280;13745;51.470;9.894;2024-01-15T09:16:55;97534.19;;;1.14;90.60
25947;BME280;13745;51.470;9.894;2024-01-15T09:19:41;97529.06;;;1.20;90.50
25947;BME280;13745;51.470;9.894;2024-01-15T09:22:26;97534.06;;;1.35;90.48
25947;BME280;13745;51.470;9.894;2024-01-15T09:25:12;97529.59;;;1.65;89.53
25947;BME280;13745;51.470;9.894;2024-01-15T09:27:57;97533.69;;;1.84;89.38
25947;BME280;13745;51.470;9.894;2024-01-15T09:30:43;97544.72;;;1.91;88.70
25947;BME280;13745;51.470;9.894;2024-01-15T09:33:30;97548.09;;;1.91;89.40
25947;BME280;13745;51.470;9.894;2024-01-15T09:36:15;97541.38;;;1.83;89.14
25947;BME280;13745;51.470;9.894;2024-01-15T09:39:00;97544.84;;;1.74;89.92
25947;BME280;13745;51.470;9.894;2024-01-15T09:41:47;97543.19;;;1.67;89.59
25947;BME280;13745;51.470;9.894;2024-01-15T09:44:33;97548.34;;;1.61;89.89
25947;BME280;13745;51.470;9.894;2024-01-15T09:47:19;97553.50;;;1.58;89.63
25947;BME280;13745;51.470;9.894;2024-01-15T09:50:07;97556.03;;;1.59;90.44
25947;BME280;13745;51.470;9.894;2024-01-15T09:52:54;97551.72;;;1.63;89.91
25947;BME280;13745;51.470;9.894;2024-01-15T09:55:41;97560.25;;;1.62;90.20
25947;BME280;13745;51.470;9.894;2024-01-15T09:58:26;97555.19;;;1.59;89.97
25947;BME280;13745;51.470;9.894;2024-01-15T10:01:14;97549.22;;;1.58;90.57
25947;BME280;13745;51.470;9.894;2024-01-15T10:04:00;97553.44;;;1.62;90.13
25947;BME280;13745;51.470;9.894;2024-01-15T10:06:46;97552.59;;;1.62;90.47
25947;BME280;13745;51.470;9.894;2024-01-15T10:09:32;97542.34;;;1.66;90.26
25947;BME280;13745;51.470;9.894;2024-01-15T10:12:17;97542.28;;;1.73;90.45
25947;BME280;13745;51.470;9.894;2024-01-15T10:15:02;97539.72;;;1.76;89.94
25947;BME280;13745;51.470;9.894;2024-01-15T10:17:48;97547.38;;;1.77;90.42
25947;BME280;13745;51.470;9.894;2024-01-15T10:20:33;97531.91;;;1.94;89.89
25947;BME280;13745;51.470;9.894;2024-01-15T10:23:19;97528.16;;;2.27;89.40
25947;BME280;13745;51.470;9.894;2024-01-15T10:26:04;97521.94;;;2.48;88.95
25947;BME280;13745;51.470;9.894;2024-01-15T10:28:50;97512.44;;;2.61;88.58
25947;BME280;13745;51.470;9.894;2024-01-15T10:31:37;97515.75;;;2.69;88.57
25947;BME280;13745;51.470;9.894;2024-01-15T10:34:22;97511.53;;;2.63;88.30
25947;BME280;13745;51.470;9.894;2024-01-15T10:37:08;97510.66;;;2.67;88.20
25947;BME280;13745;51.470;9.894;2024-01-15T10:39:54;97502.00;;;2.76;88.03
25947;BME280;13745;51.470;9.894;2024-01-15T10:42:40;97503.72;;;2.77;87.80
25947;BME280;13745;51.470;9.894;2024-01-15T10:45:25;97513.09;;;2.76;88.11
25947;BME280;13745;51.470;9.894;2024-01-15T10:48:10;97514.81;;;2.73;88.35
25947;BME280;13745;51.470;9.894;2024-01-15T10:50:55;97509.66;;;2.77;88.15
25947;BME280;13745;51.470;9.894;2024-01-15T10:53:42;97504.38;;;2.91;87.99
25947;BME280;13745;51.470;9.894;2024-01-15T10:56:30;97513.72;;;2.94;87.93
25947;BME280;13745;51.470;9.894;2024-01-15T10:59:16;97507.91;;;2.81;87.93
25947;BME280;13745;51.470;9.894;2024-01-15T11:02:02;97507.28;;;2.62;88.41
25947;BME280;13745;51.470;9.894;2024-01-15T11:05:06;97505.75;;;2.47;88.53
25947;BME280;13745;51.470;9.894;2024-01-15T11:07:55;97501.59;;;2.39;88.57
25947;BME280;13745;51.470;9.894;2024-01-15T11:10:42;97498.28;;;2.31;88.96
25947;BME280;13745;51.470;9.894;2024-01-15T11:13:40;97508.47;;;2.35;88.52
25947;BME280;13745;51.470;9.894;2024-01-15T11:16:57;97501.09;;;2.80;88.34
25947;BME280;13745;51.470;9.894;2024-01-15T11:19:44;97500.41;;;3.29;87.37
25947;BME280;13745;51.470;9.894;2024-01-15T11:22:48;97498.56;;;3.40;86.51
25947;BME280;13745;51.470;9.894;2024-01-15T11:25:34;97501.22;;;3.31;86.59
25947;BME280;13745;51.470;9.894;2024-01-15T11:31:58;97507.53;;;3.10;86.79
25947;BME280;13745;51.470;9.894;2024-01-15T11:34:52;97494.66;;;3.13;87.17
25947;BME280;13745;51.470;9.894;2024-01-15T11:37:56;97496.72;;;3.48;85.93
25947;BME280;13745;51.470;9.894;2024-01-15T11:40:44;97503.00;;;3.27;85.99
25947;BME280;13745;51.470;9.894;2024-01-15T11:43:31;97498.06;;;3.14;86.40
25947;BME280;13745;51.470;9.894;2024-01-15T11:46:17;97497.34;;;3.05;86.55
25947;BME280;13745;51.470;9.894;2024-01-15T11:49:06;97495.81;;;2.94;86.68
25947;BME280;13745;51.470;9.894;2024-01-15T11:51:55;97503.59;;;2.86;86.90
25947;BME280;13745;51.470;9.894;2024-01-15T11:54:44;97502.88;;;2.76;87.00
25947;BME280;13745;51.470;9.894;2024-01-15T11:57:40;97492.78;;;2.66;87.22
25947;BME280;13745;51.470;9.894;2024-01-15T12:00:28;97489.47;;;2.58;87.09
25947;BME280;13745;51.470;9.894;2024-01-15T12:03:13;97486.13;;;2.51;87.61
25947;BME280;13745;51.470;9.894;2024-01-15T12:06:00;97486.97;;;2.51;87.62
25947;BME280;13745;51.470;9.894;2024-01-15T12:08:45;97494.63;;;2.53;87.45
25947;BME280;13745;51.470;9.894;2024-01-15T12:11:30;97488.63;;;2.56;87.53
25947;BME280;13745;51.470;9.894;2024-01-15T12:14:17;97491.09;;;2.62;87.32
25947;BME280;13745;51.470;9.894;2024-01-15T12:17:03;97490.13;;;2.72;87.30
25947;BME280;13745;51.470;9.894;2024-01-15T12:19:49;97491.72;;;2.82;87.04
25947;BME280;13745;51.470;9.894;2024-01-15T12:22:35;97490.78;;;2.86;86.78
25947;BME280;13745;51.470;9.894;2024-01-15T12:25:22;97482.19;;;2.92;86.78
25947;BME280;13745;51.470;9.894;2024-01-15T12:28:07;97486.50;;;2.88;86.90
25947;BME280;13745;51.470;9.894;2024-01-15T12:30:53;97490.75;;;2.91;86.63
25947;BME280;13745;51.470;9.894;2024-01-15T12:33:38;97493.31;;;2.88;86.81
25947;BME280;13745;51.470;9.894;2024-01-15T12:36:24;97495.97;;;2.80;86.89
25947;BME280;13745;51.470;9.894;2024-01-15T12:39:12;97495.22;;;2.75;86.83
25947;BME280;13745;51.470;9.894;2024-01-15T12:41:57;97493.38;;;2.85;86.67
25947;BME280;13745;51.470;9.894;2024-01-15T12:44:42;97493.09;;;3.04;86.31
25947;BME280;13745;51.470;9.894;2024-01-15T12:47:28;97495.22;;;3.33;85.72
25947;BME280;13745;51.470;9.894;2024-01-15T12:50:13;97492.53;;;3.43;85.33
25947;BME280;13745;51.470;9.894;2024-01-15T12:52:58;97487.66;;;3.26;85.48
25947;BME280;13745;51.470;9.894;2024-01-15T12:55:45;97492.03;;;3.19;85.32
25947;BME280;13745;51.470;9.894;2024-01-15T12:58:30;97494.75;;;3.08;85.72
25947;BME280;13745;51.470;9.894;2024-01-15T13:01:15;97501.59;;;3.08;85.66
25947;BME280;13745;51.470;9.894;2024-01-15T13:04:00;97499.03;;;3.08;85.34
25947;BME280;13745;51.470;9.894;2024-01-15T13:06:45;97504.28;;;2.97;85.32
25947;BME280;13745;51.470;9.894;2024-01-15T13:09:30;97495.03;;;2.87;85.30
25947;BME280;13745;51.470;9.894;2024-01-15T13:12:17;97492.63;;;2.76;85.24
25947;BME280;13745;51.470;9.894;2024-01-15T13:15:02;97487.66;;;2.66;85.90
25947;BME280;13745;51.470;9.894;2024-01-15T13:17:48;97491.13;;;2.60;85.52
25947;BME280;13745;51.470;9.894;2024-01-15T13:20:33;97499.72;;;2.54;85.42
25947;BME280;13745;51.470;9.894;2024-01-15T13:23:18;97497.22;;;2.51;85.57
25947;BME280;13745;51.470;9.894;2024-01-15T13:26:04;97489.47;;;2.56;85.53
25947;BME280;13745;51.470;9.894;2024-01-15T13:28:52;97497.97;;;2.58;85.36
25947;BME280;13745;51.470;9.894;2024-01-15T13:31:38;97499.63;;;2.62;85.30
25947;BME280;13745;51.470;9.894;2024-01-15T13:34:23;97496.19;;;2.66;85.25
25947;BME280;13745;51.470;9.894;2024-01-15T13:37:08;97500.47;;;2.63;85.23
25947;BME280;13745;51.470;9.894;2024-01-15T13:39:54;97500.50;;;2.60;85.20
25947;BME280;13745;51.470;9.894;2024-01-15T13:42:40;97503.97;;;2.57;85.23
25947;BME280;13745;51.470;9.894;2024-01-15T13:45:26;97506.41;;;2.65;84.96
25947;BME280;13745;51.470;9.894;2024-01-15T13:48:11;97518.72;;;3.01;84.27
25947;BME280;13745;51.470;9.894;2024-01-15T13:50:57;97509.28;;;3.06;83.97
25947;BME280;13745;51.470;9.894;2024-01-15T13:53:43;97509.41;;;2.99;84.06
25947;BME280;13745;51.470;9.894;2024-01-15T13:56:27;97513.78;;;2.88;83.84
25947;BME280;13745;51.470;9.894;2024-01-15T13:59:16;97523.34;;;2.75;84.21
25947;BME280;13745;51.470;9.894;2024-01-15T14:02:02;97516.63;;;2.66;84.36
25947;BME280;13745;51.470;9.894;2024-01-15T14:04:49;97526.06;;;2.61;84.00
25947;BME280;13745;51.470;9.894;2024-01-15T14:07:34;97526.91;;;2.62;83.97
25947;BME280;13745;51.470;9.894;2024-01-15T14:10:19;97521.84;;;2.59;84.21
25947;BME280;13745;51.470;9.894;2024-01-15T14:13:03;97520.22;;;2.51;84.17
25947;BME280;13745;51.470;9.894;2024-01-15T14:15:49;97532.16;;;2.48;84.24
25947;BME280;13745;51.470;9.894;2024-01-15T14:18:35;97537.34;;;2.43;84.34
25947;BME280;13745;51.470;9.894;2024-01-15T14:21:20;97531.41;;;2.40;84.40
25947;BME280;13745;51.470;9.894;2024-01-15T14:24:05;97532.38;;;2.33;83.96
25947;BME280;13745;51.470;9.894;2024-01-15T14:26:50;97542.59;;;2.30;84.49
25947;BME280;13745;51.470;9.894;2024-01-15T14:29:35;97536.63;;;2.31;84.48
25947;BME280;13745;51.470;9.894;2024-01-15T14:32:20;97530.66;;;2.33;84.25
25947;BME280;13745;51.470;9.894;2024-01-15T14:35:07;97546.78;;;2.37;84.37
25947;BME280;13745;51.470;9.894;2024-01-15T14:37:54;97542.50;;;2.39;84.26
25947;BME280;13745;51.470;9.894;2024-01-15T14:40:42;97545.94;;;2.38;84.34
25947;BME280;13745;51.470;9.894;2024-01-15T14:43:28;97543.38;;;2.38;84.11
25947;BME280;13745;51.470;9.894;2024-01-15T14:46:13;97539.94;;;2.39;83.99
25947;BME280;13745;51.470;9.894;2024-01-15T14:48:57;97538.25;;;2.41;83.95
25947;BME280;13745;51.470;9.894;2024-01-15T14:51:44;97541.59;;;2.44;83.90
25947;BME280;13745;51.470;9.894;2024-01-15T14:54:29;97550.06;;;2.51;83.67